sensor_id;sensor_type;location;lat;lon;timestamp;pressure;altitude;pressure_sealevel;temperature;humidity
70304;BME280;57712;48.752;11.348;2022-07-23T00:00:25;97481.81;;;24.24;52.94
70304;BME280;57712;48.752;11.348;2022-07-23T00:02:52;97480.81;;;24.33;52.42
70304;BME280;57712;48.752;11.348;2022-07-23T00:05:19;97482.56;;;24.36;53.85
70304;BME280;57712;48.752;11.348;2022-07-23T00:07:45;97477.47;;;24.45;54.77
70304;BME280;57712;48.752;11.348;2022-07-23T00:10:12;97483.34;;;24.31;54.30
70304;BME280;57712;48.752;11.348;2022-07-23T00:12:39;97479.75;;;24.25;52.56
70304;BME280;57712;48.752;11.348;2022-07-23T00:15:17;97475.16;;;24.44;51.80
70304;BME280;57712;48.752;11.348;2022-07-23T00:17:44;97474.41;;;24.38;53.53
70304;BME280;57712;48.752;11.348;2022-07-23T00:20:10;97465.00;;;24.41;51.94
70304;BME280;57712;48.752;11.348;2022-07-23T00:22:45;97464.44;;;24.54;51.43
70304;BME280;57712;48.752;11.348;2022-07-23T00:25:12;97462.97;;;24.36;52.60
70304;BME280;57712;48.752;11.348;2022-07-23T00:27:57;97453.00;;;24.46;52.15
70304;BME280;57712;48.752;11.348;2022-07-23T00:30:24;97444.63;;;24.35;52.85
70304;BME280;57712;48.752;11.348;2022-07-23T00:32:56;97451.03;;;24.18;53.04
70304;BME280;57712;48.752;11.348;2022-07-23T00:35:25;97445.44;;;24.18;52.62
70304;BME280;57712;48.752;11.348;2022-07-23T00:37:52;97451.53;;;24.17;52.85
70304;BME280;57712;48.752;11.348;2022-07-23T00:40:19;97455.38;;;24.03;53.11
70304;BME280;57712;48.752;11.348;2022-07-23T00:42:46;97450.03;;;24.05;53.27
70304;BME280;57712;48.752;11.348;2022-07-23T00:45:12;97448.72;;;24.39;53.23
70304;BME280;57712;48.752;11.348;2022-07-23T00:47:39;97452.75;;;24.44;53.21
70304;BME280;57712;48.752;11.348;2022-07-23T00:50:07;97451.19;;;24.60;54.01
70304;BME280;57712;48.752;11.348;2022-07-23T00:52:36;97456.59;;;24.30;52.13
70304;BME280;57712;48.752;11.348;2022-07-23T00:55:04;97463.47;;;24.17;53.89
70304;BME280;57712;48.752;11.348;2022-07-23T00:57:31;97461.25;;;23.88;53.76
70304;BME280;57712;48.752;11.348;2022-07-23T00:59:58;97474.47;;;23.93;53.51
70304;BME280;57712;48.752;11.348;2022-07-23T01:02:26;97488.44;;;23.59;54.54
70304;BME280;57712;48.752;11.348;2022-07-23T01:04:52;97499.88;;;23.61;54.81
70304;BME280;57712;48.752;11.348;2022-07-23T01:07:19;97505.94;;;23.38;54.51
70304;BME280;57712;48.752;11.348;2022-07-23T01:09:46;97519.28;;;22.94;56.52
70304;BME280;57712;48.752;11.348;2022-07-23T01:12:13;97536.28;;;22.96;56.98
70304;BME280;57712;48.752;11.348;2022-07-23T01:14:39;97550.13;;;22.74;57.78
70304;BME280;57712;48.752;11.348;2022-07-23T01:17:06;97558.19;;;23.03;57.25
70304;BME280;57712;48.752;11.348;2022-07-23T01:19:32;97575.00;;;23.15;57.59
70304;BME280;57712;48.752;11.348;2022-07-23T01:22:02;97564.31;;;23.19;58.11
70304;BME280;57712;48.752;11.348;2022-07-23T01:24:29;97568.13;;;23.21;58.06
70304;BME280;57712;48.752;11.348;2022-07-23T01:26:56;97575.47;;;23.08;58.10
70304;BME280;57712;48.752;11.348;2022-07-23T01:29:22;97565.94;;;23.53;57.60
70304;BME280;57712;48.752;11.348;2022-07-23T01:31:49;97563.38;;;23.44;57.63
70304;BME280;57712;48.752;11.348;2022-07-23T01:34:15;97564.69;;;23.54;59.82
70304;BME280;57712;48.752;11.348;2022-07-23T01:36:42;97554.31;;;23.60;60.80
70304;BME280;57712;48.752;11.348;2022-07-23T01:39:09;97563.75;;;23.91;61.58
70304;BME280;57712;48.752;11.348;2022-07-23T01:41:35;97568.47;;;23.40;59.22
70304;BME280;57712;48.752;11.348;2022-07-23T01:44:02;97576.19;;;23.68;61.02
70304;BME280;57712;48.752;11.348;2022-07-23T01:46:29;97581.97;;;23.53;63.81
70304;BME280;57712;48.752;11.348;2022-07-23T01:48:56;97594.59;;;23.31;64.69
70304;BME280;57712;48.752;11.348;2022-07-23T01:51:23;97607.69;;;23.03;65.43
70304;BME280;57712;48.752;11.348;2022-07-23T01:53:49;97618.94;;;23.14;65.82
70304;BME280;57712;48.752;11.348;2022-07-23T01:56:16;97625.66;;;22.85;67.33
70304;BME280;57712;48.752;11.348;2022-07-23T01:58:42;97621.16;;;22.30;68.91
70304;BME280;57712;48.752;11.348;2022-07-23T02:01:09;97621.88;;;22.25;69.42
70304;BME280;57712;48.752;11.348;2022-07-23T02:03:36;97619.00;;;22.14;70.82
70304;BME280;57712;48.752;11.348;2022-07-23T02:06:02;97632.88;;;21.82;72.58
70304;BME280;57712;48.752;11.348;2022-07-23T02:08:29;97632.97;;;21.94;72.81
70304;BME280;57712;48.752;11.348;2022-07-23T02:10:55;97644.97;;;22.00;72.50
70304;BME280;57712;48.752;11.348;2022-07-23T02:13:22;97629.75;;;22.01;72.71
70304;BME280;57712;48.752;11.348;2022-07-23T02:15:48;97624.56;;;22.14;74.27
70304;BME280;57712;48.752;11.348;2022-07-23T02:18:15;97616.25;;;21.94;74.62
70304;BME280;57712;48.752;11.348;2022-07-23T02:20:42;97622.88;;;21.50;75.04
70304;BME280;57712;48.752;11.348;2022-07-23T02:23:11;97613.84;;;21.81;77.62
70304;BME280;57712;48.752;11.348;2022-07-23T02:25:37;97640.13;;;21.74;77.57
70304;BME280;57712;48.752;11.348;2022-07-23T02:28:04;97638.88;;;21.55;75.77
70304;BME280;57712;48.752;11.348;2022-07-23T02:30:30;97620.19;;;21.81;76.92
70304;BME280;57712;48.752;11.348;2022-07-23T02:32:57;97605.28;;;21.64;75.36
70304;BME280;57712;48.752;11.348;2022-07-23T02:35:24;97603.97;;;21.59;76.63
70304;BME280;57712;48.752;11.348;2022-07-23T02:37:50;97590.81;;;21.60;78.26
70304;BME280;57712;48.752;11.348;2022-07-23T02:40:18;97592.06;;;21.59;77.09
70304;BME280;57712;48.752;11.348;2022-07-23T02:42:44;97601.59;;;21.26;76.61
70304;BME280;57712;48.752;11.348;2022-07-23T02:45:11;97624.69;;;21.32;77.38
70304;BME280;57712;48.752;11.348;2022-07-23T02:47:37;97590.31;;;21.21;77.62
70304;BME280;57712;48.752;11.348;2022-07-23T02:50:05;97582.63;;;21.30;76.19
70304;BME280;57712;48.752;11.348;2022-07-23T02:52:31;97586.38;;;21.48;77.61
70304;BME280;57712;48.752;11.348;2022-07-23T02:54:58;97579.06;;;21.30;77.96
70304;BME280;57712;48.752;11.348;2022-07-23T02:57:25;97574.53;;;21.32;77.66
70304;BME280;57712;48.752;11.348;2022-07-23T02:59:51;97583.72;;;21.39;77.77
70304;BME280;57712;48.752;11.348;2022-07-23T03:02:18;97580.81;;;21.27;78.01
70304;BME280;57712;48.752;11.348;2022-07-23T03:04:44;97571.03;;;20.97;77.02
70304;BME280;57712;48.752;11.348;2022-07-23T03:07:11;97558.50;;;21.07;77.59
70304;BME280;57712;48.752;11.348;2022-07-23T03:09:38;97557.94;;;21.03;77.49
70304;BME280;57712;48.752;11.348;2022-07-23T03:12:05;97549.78;;;21.20;77.46
70304;BME280;57712;48.752;11.348;2022-07-23T03:14:39;97541.47;;;21.25;77.92
70304;BME280;57712;48.752;11.348;2022-07-23T03:17:05;97543.72;;;21.01;77.44
70304;BME280;57712;48.752;11.348;2022-07-23T03:19:32;97550.47;;;21.15;77.25
70304;BME280;57712;48.752;11.348;2022-07-23T03:21:58;97539.78;;;21.28;77.31
70304;BME280;57712;48.752;11.348;2022-07-23T03:24:25;97546.13;;;21.28;77.33
70304;BME280;57712;48.752;11.348;2022-07-23T03:27:11;97547.91;;;21.31;76.42
70304;BME280;57712;48.752;11.348;2022-07-23T03:29:38;97540.44;;;21.23;78.47
70304;BME280;57712;48.752;11.348;2022-07-23T03:32:05;97534.75;;;21.12;78.58
70304;BME280;57712;48.752;11.348;2022-07-23T03:34:32;97527.16;;;20.92;77.83
70304;BME280;57712;48.752;11.348;2022-07-23T03:36:58;97527.53;;;21.46;77.57
70304;BME280;57712;48.752;11.348;2022-07-23T03:39:28;97512.22;;;21.36;77.47
70304;BME280;57712;48.752;11.348;2022-07-23T03:41:55;97504.59;;;21.30;75.67
70304;BME280;57712;48.752;11.348;2022-07-23T03:44:22;97498.81;;;21.60;75.85
70304;BME280;57712;48.752;11.348;2022-07-23T03:46:48;97490.47;;;21.66;75.14
70304;BME280;57712;48.752;11.348;2022-07-23T03:49:15;97502.94;;;21.70;75.35
70304;BME280;57712;48.752;11.348;2022-07-23T03:51:42;97528.00;;;21.39;77.99
70304;BME280;57712;48.752;11.348;2022-07-23T03:54:08;97533.09;;;21.46;79.40
70304;BME280;57712;48.752;11.348;2022-07-23T03:56:35;97526.84;;;21.51;78.73
70304;BME280;57712;48.752;11.348;2022-07-23T03:59:02;97532.69;;;21.53;77.32
70304;BME280;57712;48.752;11.348;2022-07-23T04:01:29;97527.22;;;21.38;78.05
70304;BME280;57712;48.752;11.348;2022-07-23T04:03:56;97518.09;;;21.38;77.43
70304;BME280;57712;48.752;11.348;2022-07-23T04:06:22;97530.69;;;21.33;78.35
70304;BME280;57712;48.752;11.348;2022-07-23T04:08:49;97529.03;;;21.21;79.04
70304;BME280;57712;48.752;11.348;2022-07-23T04:11:15;97534.59;;;21.41;79.15
70304;BME280;57712;48.752;11.348;2022-07-23T04:13:42;97539.91;;;21.65;79.01
70304;BME280;57712;48.752;11.348;2022-07-23T04:16:08;97540.56;;;21.54;77.64
70304;BME280;57712;48.752;11.348;2022-07-23T04:18:35;97539.34;;;21.61;76.76
70304;BME280;57712;48.752;11.348;2022-07-23T04:21:02;97533.78;;;21.61;77.24
70304;BME280;57712;48.752;11.348;2022-07-23T04:23:28;97531.13;;;21.78;76.81
70304;BME280;57712;48.752;11.348;2022-07-23T04:25:55;97546.78;;;21.70;76.97
70304;BME280;57712;48.752;11.348;2022-07-23T04:28:23;97541.44;;;21.40;76.95
70304;BME280;57712;48.752;11.348;2022-07-23T04:30:49;97549.84;;;21.46;77.35
70304;BME280;57712;48.752;11.348;2022-07-23T04:33:16;97552.19;;;21.53;77.18
70304;BME280;57712;48.752;11.348;2022-07-23T04:35:43;97550.66;;;21.52;76.58
70304;BME280;57712;48.752;11.348;2022-07-23T04:38:09;97545.66;;;21.36;77.86
70304;BME280;57712;48.752;11.348;2022-07-23T04:40:36;97550.44;;;21.09;78.32
70304;BME280;57712;48.752;11.348;2022-07-23T04:43:02;97551.84;;;21.25;78.42
70304;BME280;57712;48.752;11.348;2022-07-23T04:45:29;97548.47;;;21.36;78.02
70304;BME280;57712;48.752;11.348;2022-07-23T04:47:55;97557.25;;;21.28;78.00
70304;BME280;57712;48.752;11.348;2022-07-23T04:50:23;97562.53;;;21.47;77.45
70304;BME280;57712;48.752;11.348;2022-07-23T04:52:50;97557.13;;;21.38;77.30
70304;BME280;57712;48.752;11.348;2022-07-23T04:55:17;97562.31;;;21.76;76.89
70304;BME280;57712;48.752;11.348;2022-07-23T04:57:44;97566.44;;;21.35;78.03
70304;BME280;57712;48.752;11.348;2022-07-23T05:00:11;97561.84;;;21.31;78.32
70304;BME280;57712;48.752;11.348;2022-07-23T05:02:38;97560.31;;;21.30;78.04
70304;BME280;57712;48.752;11.348;2022-07-23T05:05:05;97566.44;;;21.35;78.52
70304;BME280;57712;48.752;11.348;2022-07-23T05:07:31;97560.94;;;21.66;77.13
70304;BME280;57712;48.752;11.348;2022-07-23T05:09:58;97563.84;;;21.77;76.95
70304;BME280;57712;48.752;11.348;2022-07-23T05:12:24;97570.41;;;21.74;78.22
70304;BME280;57712;48.752;11.348;2022-07-23T05:14:51;97573.53;;;21.82;76.03
70304;BME280;57712;48.752;11.348;2022-07-23T05:17:19;97569.31;;;21.66;76.67
70304;BME280;57712;48.752;11.348;2022-07-23T05:19:45;97572.53;;;21.59;77.16
70304;BME280;57712;48.752;11.348;2022-07-23T05:22:12;97573.56;;;21.87;77.03
70304;BME280;57712;48.752;11.348;2022-07-23T05:24:39;97570.41;;;21.74;76.81
70304;BME280;57712;48.752;11.348;2022-07-23T05:27:05;97565.59;;;21.49;77.20
70304;BME280;57712;48.752;11.348;2022-07-23T05:29:32;97565.78;;;21.45;77.41
70304;BME280;57712;48.752;11.348;2022-07-23T05:31:58;97566.91;;;21.79;75.99
70304;BME280;57712;48.752;11.348;2022-07-23T05:34:25;97558.09;;;21.86;76.67
70304;BME280;57712;48.752;11.348;2022-07-23T05:36:52;97560.97;;;21.98;76.02
70304;BME280;57712;48.752;11.348;2022-07-23T05:39:18;97556.59;;;22.17;75.00
70304;BME280;57712;48.752;11.348;2022-07-23T05:41:45;97562.06;;;22.06;75.09
70304;BME280;57712;48.752;11.348;2022-07-23T05:44:11;97566.69;;;22.09;75.09
70304;BME280;57712;48.752;11.348;2022-07-23T05:46:38;97570.25;;;21.83;75.37
70304;BME280;57712;48.752;11.348;2022-07-23T05:49:05;97572.50;;;21.79;75.63
70304;BME280;57712;48.752;11.348;2022-07-23T05:51:32;97565.00;;;21.91;74.60
70304;BME280;57712;48.752;11.348;2022-07-23T05:53:59;97565.69;;;22.12;74.40
70304;BME280;57712;48.752;11.348;2022-07-23T05:56:26;97567.75;;;22.17;74.41
70304;BME280;57712;48.752;11.348;2022-07-23T05:58:52;97571.63;;;22.25;73.93
70304;BME280;57712;48.752;11.348;2022-07-23T06:01:18;97576.91;;;22.17;74.08
70304;BME280;57712;48.752;11.348;2022-07-23T06:03:45;97576.34;;;22.45;73.76
70304;BME280;57712;48.752;11.348;2022-07-23T06:06:12;97573.81;;;22.47;73.97
70304;BME280;57712;48.752;11.348;2022-07-23T06:08:38;97568.59;;;22.29;73.78
70304;BME280;57712;48.752;11.348;2022-07-23T06:11:07;97575.00;;;22.35;74.46
70304;BME280;57712;48.752;11.348;2022-07-23T06:13:34;97587.06;;;22.52;74.63
70304;BME280;57712;48.752;11.348;2022-07-23T06:16:01;97597.81;;;22.70;74.10
70304;BME280;57712;48.752;11.348;2022-07-23T06:18:27;97591.41;;;22.59;73.31
70304;BME280;57712;48.752;11.348;2022-07-23T06:20:54;97601.78;;;22.53;74.57
70304;BME280;57712;48.752;11.348;2022-07-23T06:23:26;97607.19;;;22.62;73.89
70304;BME280;57712;48.752;11.348;2022-07-23T06:25:53;97596.25;;;22.95;72.75
70304;BME280;57712;48.752;11.348;2022-07-23T06:28:19;97605.88;;;22.94;72.43
70304;BME280;57712;48.752;11.348;2022-07-23T06:30:46;97622.22;;;23.07;72.31
70304;BME280;57712;48.752;11.348;2022-07-23T06:33:12;97628.06;;;23.09;72.49
70304;BME280;57712;48.752;11.348;2022-07-23T06:35:39;97611.59;;;23.17;71.08
70304;BME280;57712;48.752;11.348;2022-07-23T06:38:06;97620.78;;;23.34;70.74
70304;BME280;57712;48.752;11.348;2022-07-23T06:40:33;97610.09;;;23.27;71.21
70304;BME280;57712;48.752;11.348;2022-07-23T06:42:59;97610.63;;;23.31;71.50
70304;BME280;57712;48.752;11.348;2022-07-23T06:45:26;97626.13;;;23.26;71.09
70304;BME280;57712;48.752;11.348;2022-07-23T06:47:53;97617.38;;;23.61;70.74
70304;BME280;57712;48.752;11.348;2022-07-23T06:50:19;97619.97;;;23.82;70.31
70304;BME280;57712;48.752;11.348;2022-07-23T06:52:46;97616.97;;;24.19;68.72
70304;BME280;57712;48.752;11.348;2022-07-23T06:55:12;97620.75;;;24.05;68.76
70304;BME280;57712;48.752;11.348;2022-07-23T06:57:40;97626.63;;;24.12;66.96
70304;BME280;57712;48.752;11.348;2022-07-23T07:00:07;97635.81;;;24.30;66.91
70304;BME280;57712;48.752;11.348;2022-07-23T07:02:34;97634.44;;;23.75;68.08
70304;BME280;57712;48.752;11.348;2022-07-23T07:05:04;97644.22;;;24.35;67.08
70304;BME280;57712;48.752;11.348;2022-07-23T07:07:33;97635.53;;;24.16;66.25
70304;BME280;57712;48.752;11.348;2022-07-23T07:09:59;97649.59;;;24.50;64.62
70304;BME280;57712;48.752;11.348;2022-07-23T07:12:26;97643.16;;;24.94;63.55
70304;BME280;57712;48.752;11.348;2022-07-23T07:14:53;97634.28;;;25.01;64.84
70304;BME280;57712;48.752;11.348;2022-07-23T07:17:19;97638.63;;;24.74;64.43
70304;BME280;57712;48.752;11.348;2022-07-23T07:19:46;97648.25;;;24.96;64.35
70304;BME280;57712;48.752;11.348;2022-07-23T07:22:13;97644.19;;;24.86;64.91
70304;BME280;57712;48.752;11.348;2022-07-23T07:24:39;97642.66;;;24.90;65.15
70304;BME280;57712;48.752;11.348;2022-07-23T07:27:06;97651.09;;;24.29;65.13
70304;BME280;57712;48.752;11.348;2022-07-23T07:29:32;97651.88;;;24.57;64.93
70304;BME280;57712;48.752;11.348;2022-07-23T07:31:59;97657.94;;;24.95;63.96
70304;BME280;57712;48.752;11.348;2022-07-23T07:34:26;97653.38;;;24.69;64.51
70304;BME280;57712;48.752;11.348;2022-07-23T07:36:53;97652.88;;;24.82;64.02
70304;BME280;57712;48.752;11.348;2022-07-23T07:39:20;97657.44;;;24.96;62.92
70304;BME280;57712;48.752;11.348;2022-07-23T07:41:46;97656.63;;;25.18;64.42
70304;BME280;57712;48.752;11.348;2022-07-23T07:44:13;97662.72;;;25.33;63.89
70304;BME280;57712;48.752;11.348;2022-07-23T07:46:39;97674.47;;;25.26;63.62
70304;BME280;57712;48.752;11.348;2022-07-23T07:49:06;97654.66;;;25.77;62.84
70304;BME280;57712;48.752;11.348;2022-07-23T07:51:40;97660.84;;;26.11;59.90
70304;BME280;57712;48.752;11.348;2022-07-23T07:54:07;97656.19;;;26.19;60.06
70304;BME280;57712;48.752;11.348;2022-07-23T07:56:33;97649.59;;;26.52;58.06
70304;BME280;57712;48.752;11.348;2022-07-23T07:59:00;97662.53;;;26.61;58.51
70304;BME280;57712;48.752;11.348;2022-07-23T08:01:27;97659.00;;;26.85;58.11
70304;BME280;57712;48.752;11.348;2022-07-23T08:03:54;97660.63;;;26.44;57.91
70304;BME280;57712;48.752;11.348;2022-07-23T08:06:20;97660.72;;;26.93;56.42
70304;BME280;57712;48.752;11.348;2022-07-23T08:08:48;97669.03;;;26.80;56.47
70304;BME280;57712;48.752;11.348;2022-07-23T08:11:14;97683.41;;;26.71;57.24
70304;BME280;57712;48.752;11.348;2022-07-23T08:13:41;97680.78;;;26.07;57.51
70304;BME280;57712;48.752;11.348;2022-07-23T08:16:07;97684.47;;;25.85;59.27
70304;BME280;57712;48.752;11.348;2022-07-23T08:18:34;97690.44;;;26.12;58.66
70304;BME280;57712;48.752;11.348;2022-07-23T08:21:00;97695.44;;;25.89;59.45
70304;BME280;57712;48.752;11.348;2022-07-23T08:23:27;97685.19;;;26.38;58.95
70304;BME280;57712;48.752;11.348;2022-07-23T08:25:55;97691.50;;;25.45;59.64
70304;BME280;57712;48.752;11.348;2022-07-23T08:28:23;97683.44;;;25.83;59.86
70304;BME280;57712;48.752;11.348;2022-07-23T08:30:49;97684.38;;;26.02;59.45
70304;BME280;57712;48.752;11.348;2022-07-23T08:33:17;97682.47;;;25.69;59.29
70304;BME280;57712;48.752;11.348;2022-07-23T08:36:00;97693.97;;;25.77;59.52
70304;BME280;57712;48.752;11.348;2022-07-23T08:38:29;97678.00;;;26.02;60.06
70304;BME280;57712;48.752;11.348;2022-07-23T08:40:57;97684.28;;;25.61;61.49
70304;BME280;57712;48.752;11.348;2022-07-23T08:43:26;97683.72;;;26.26;60.25
70304;BME280;57712;48.752;11.348;2022-07-23T08:45:54;97672.06;;;25.64;59.21
70304;BME280;57712;48.752;11.348;2022-07-23T08:48:28;97682.22;;;26.19;59.31
70304;BME280;57712;48.752;11.348;2022-07-23T08:50:58;97688.00;;;26.38;59.96
70304;BME280;57712;48.752;11.348;2022-07-23T08:53:28;97688.28;;;26.29;60.45
70304;BME280;57712;48.752;11.348;2022-07-23T08:55:59;97695.97;;;26.64;60.04
70304;BME280;57712;48.752;11.348;2022-07-23T08:58:28;97689.06;;;26.65;59.51
70304;BME280;57712;48.752;11.348;2022-07-23T09:00:55;97679.22;;;27.13;58.55
70304;BME280;57712;48.752;11.348;2022-07-23T09:03:29;97679.78;;;26.76;54.69
70304;BME280;57712;48.752;11.348;2022-07-23T09:05:57;97677.47;;;26.44;57.19
70304;BME280;57712;48.752;11.348;2022-07-23T09:08:25;97670.16;;;26.66;55.08
70304;BME280;57712;48.752;11.348;2022-07-23T09:10:57;97675.47;;;26.39;57.02
70304;BME280;57712;48.752;11.348;2022-07-23T09:13:28;97674.38;;;27.08;54.90
70304;BME280;57712;48.752;11.348;2022-07-23T09:15:58;97669.72;;;26.86;53.59
70304;BME280;57712;48.752;11.348;2022-07-23T09:18:33;97670.88;;;27.26;54.20
70304;BME280;57712;48.752;11.348;2022-07-23T09:21:08;97672.88;;;27.31;52.79
70304;BME280;57712;48.752;11.348;2022-07-23T09:29:17;97672.41;;;28.27;50.57
70304;BME280;57712;48.752;11.348;2022-07-23T09:32:02;97668.56;;;28.30;50.95
70304;BME280;57712;48.752;11.348;2022-07-23T09:34:33;97681.44;;;28.58;51.26
70304;BME280;57712;48.752;11.348;2022-07-23T09:37:12;97680.72;;;28.19;49.87
70304;BME280;57712;48.752;11.348;2022-07-23T09:39:41;97671.06;;;29.11;49.46
70304;BME280;57712;48.752;11.348;2022-07-23T09:42:24;97668.16;;;28.85;45.72
70304;BME280;57712;48.752;11.348;2022-07-23T09:44:53;97664.00;;;29.18;49.00
70304;BME280;57712;48.752;11.348;2022-07-23T09:47:21;97653.47;;;29.71;46.70
70304;BME280;57712;48.752;11.348;2022-07-23T09:50:05;97665.88;;;29.42;44.96
70304;BME280;57712;48.752;11.348;2022-07-23T09:52:35;97666.75;;;29.50;45.38
70304;BME280;57712;48.752;11.348;2022-07-23T09:55:04;97657.19;;;29.40;43.45
70304;BME280;57712;48.752;11.348;2022-07-23T09:57:32;97668.09;;;28.90;44.37
70304;BME280;57712;48.752;11.348;2022-07-23T10:00:01;97649.72;;;30.03;43.82
70304;BME280;57712;48.752;11.348;2022-07-23T10:02:32;97639.50;;;30.00;42.61
70304;BME280;57712;48.752;11.348;2022-07-23T10:04:59;97643.03;;;30.89;42.22
70304;BME280;57712;48.752;11.348;2022-07-23T10:07:27;97644.34;;;31.45;39.19
70304;BME280;57712;48.752;11.348;2022-07-23T10:09:58;97641.53;;;31.17;37.47
70304;BME280;57712;48.752;11.348;2022-07-23T10:12:26;97636.53;;;32.10;34.46
70304;BME280;57712;48.752;11.348;2022-07-23T10:14:52;97638.50;;;32.61;35.66
70304;BME280;57712;48.752;11.348;2022-07-23T10:17:19;97637.34;;;33.41;35.43
70304;BME280;57712;48.752;11.348;2022-07-23T10:19:46;97648.66;;;31.75;38.14
70304;BME280;57712;48.752;11.348;2022-07-23T10:22:19;97637.72;;;32.38;37.34
70304;BME280;57712;48.752;11.348;2022-07-23T10:24:56;97642.66;;;32.60;37.06
70304;BME280;57712;48.752;11.348;2022-07-23T10:27:39;97645.78;;;32.18;36.76
70304;BME280;57712;48.752;11.348;2022-07-23T10:30:41;97640.78;;;33.16;37.00
70304;BME280;57712;48.752;11.348;2022-07-23T10:33:45;97644.81;;;32.01;37.09
70304;BME280;57712;48.752;11.348;2022-07-23T10:36:22;97636.63;;;31.82;38.32
70304;BME280;57712;48.752;11.348;2022-07-23T10:39:26;97634.91;;;32.99;37.46
70304;BME280;57712;48.752;11.348;2022-07-23T10:42:08;97630.31;;;31.68;39.58
70304;BME280;57712;48.752;11.348;2022-07-23T10:44:47;97622.28;;;31.95;36.88
70304;BME280;57712;48.752;11.348;2022-07-23T10:47:28;97627.63;;;31.63;37.49
70304;BME280;57712;48.752;11.348;2022-07-23T10:50:26;97613.63;;;32.01;40.54
70304;BME280;57712;48.752;11.348;2022-07-23T10:58:04;97613.09;;;33.40;35.95
70304;BME280;57712;48.752;11.348;2022-07-23T11:00:32;97611.22;;;31.69;37.50
70304;BME280;57712;48.752;11.348;2022-07-23T11:03:01;97609.28;;;31.20;38.61
70304;BME280;57712;48.752;11.348;2022-07-23T11:05:45;97596.88;;;30.73;39.60
70304;BME280;57712;48.752;11.348;2022-07-23T11:08:17;97593.25;;;31.22;39.64
70304;BME280;57712;48.752;11.348;2022-07-23T11:10:53;97610.41;;;29.92;40.79
70304;BME280;57712;48.752;11.348;2022-07-23T11:13:49;97602.94;;;31.35;38.45
70304;BME280;57712;48.752;11.348;2022-07-23T11:16:18;97603.03;;;32.09;37.02
70304;BME280;57712;48.752;11.348;2022-07-23T11:24:08;97612.72;;;31.26;38.24
70304;BME280;57712;48.752;11.348;2022-07-23T11:32:18;97597.22;;;30.49;37.82
70304;BME280;57712;48.752;11.348;2022-07-23T11:34:46;97587.28;;;30.56;37.73
70304;BME280;57712;48.752;11.348;2022-07-23T11:37:28;97581.47;;;30.61;38.20
70304;BME280;57712;48.752;11.348;2022-07-23T11:39:57;97567.47;;;31.85;36.47
70304;BME280;57712;48.752;11.348;2022-07-23T11:42:24;97576.78;;;31.49;37.72
70304;BME280;57712;48.752;11.348;2022-07-23T11:44:56;97578.25;;;31.43;36.67
70304;BME280;57712;48.752;11.348;2022-07-23T11:47:25;97577.88;;;31.82;35.91
70304;BME280;57712;48.752;11.348;2022-07-23T11:49:57;97572.22;;;31.90;36.08
70304;BME280;57712;48.752;11.348;2022-07-23T11:52:25;97575.31;;;32.68;32.93
70304;BME280;57712;48.752;11.348;2022-07-23T11:57:29;97570.72;;;33.19;33.52
70304;BME280;57712;48.752;11.348;2022-07-23T12:00:17;97562.84;;;32.87;33.99
70304;BME280;57712;48.752;11.348;2022-07-23T12:02:49;97563.22;;;32.76;34.07
70304;BME280;57712;48.752;11.348;2022-07-23T12:05:19;97564.69;;;32.15;33.69
70304;BME280;57712;48.752;11.348;2022-07-23T12:07:50;97560.66;;;31.88;36.11
70304;BME280;57712;48.752;11.348;2022-07-23T12:10:27;97563.00;;;31.53;35.79
70304;BME280;57712;48.752;11.348;2022-07-23T12:12:56;97559.97;;;31.51;35.46
70304;BME280;57712;48.752;11.348;2022-07-23T12:15:31;97563.19;;;31.48;36.97
70304;BME280;57712;48.752;11.348;2022-07-23T12:18:01;97558.34;;;31.20;35.78
70304;BME280;57712;48.752;11.348;2022-07-23T12:20:32;97559.22;;;31.15;37.54
70304;BME280;57712;48.752;11.348;2022-07-23T12:23:02;97556.69;;;30.67;37.07
70304;BME280;57712;48.752;11.348;2022-07-23T12:25:35;97548.72;;;30.94;38.68
70304;BME280;57712;48.752;11.348;2022-07-23T12:28:17;97540.84;;;31.00;36.79
70304;BME280;57712;48.752;11.348;2022-07-23T12:30:45;97549.94;;;31.07;36.96
70304;BME280;57712;48.752;11.348;2022-07-23T12:33:14;97547.63;;;30.97;37.08
70304;BME280;57712;48.752;11.348;2022-07-23T12:35:44;97548.22;;;31.03;36.01
70304;BME280;57712;48.752;11.348;2022-07-23T12:38:18;97547.88;;;31.15;37.83
70304;BME280;57712;48.752;11.348;2022-07-23T12:40:53;97556.88;;;31.34;37.95
70304;BME280;57712;48.752;11.348;2022-07-23T12:43:32;97548.41;;;31.93;36.58
70304;BME280;57712;48.752;11.348;2022-07-23T12:54:06;97555.97;;;31.98;37.65
70304;BME280;57712;48.752;11.348;2022-07-23T12:56:35;97551.09;;;32.67;35.79
70304;BME280;57712;48.752;11.348;2022-07-23T12:59:14;97560.94;;;32.51;34.06
70304;BME280;57712;48.752;11.348;2022-07-23T13:01:53;97561.84;;;32.08;34.75
70304;BME280;57712;48.752;11.348;2022-07-23T13:04:22;97562.03;;;32.02;35.27
70304;BME280;57712;48.752;11.348;2022-07-23T13:09:24;97569.00;;;31.42;37.04
70304;BME280;57712;48.752;11.348;2022-07-23T13:11:53;97564.00;;;30.21;38.09
70304;BME280;57712;48.752;11.348;2022-07-23T13:14:23;97570.47;;;30.29;38.50
70304;BME280;57712;48.752;11.348;2022-07-23T13:16:53;97562.09;;;30.86;36.61
70304;BME280;57712;48.752;11.348;2022-07-23T13:19:22;97566.88;;;30.99;36.56
70304;BME280;57712;48.752;11.348;2022-07-23T13:21:51;97568.81;;;31.12;37.56
70304;BME280;57712;48.752;11.348;2022-07-23T13:24:18;97568.63;;;31.10;37.58
70304;BME280;57712;48.752;11.348;2022-07-23T13:26:45;97565.81;;;31.10;37.48
70304;BME280;57712;48.752;11.348;2022-07-23T13:29:13;97564.63;;;31.05;36.45
70304;BME280;57712;48.752;11.348;2022-07-23T13:31:43;97568.78;;;31.04;37.66
70304;BME280;57712;48.752;11.348;2022-07-23T13:34:11;97568.28;;;30.85;36.54